Time;durP1;ratioP1;P1;durP2;ratioP2;P2;SDS_P1;SDS_P2;PMS_P1;PMS_P2;Temp;Humidity;BMP_temperature;BMP_pressure;BME280_temperature;BME280_humidity;BME280_pressure;Samples;Min_cycle;Max_cycle;Signal;HPM_P1;HPM_P2
2021/06/05 00:00:21;;;;;;;7.28;4.57;;;13.40;99.90;;;;;;5051786;28;20044;-44
2021/06/05 00:02:47;;;;;;;6.05;5.07;;;13.40;99.90;;;;;;5043392;28;20195;-43
2021/06/05 00:05:13;;;;;;;7.35;6.15;;;13.40;99.90;;;;;;5031038;28;20109;-44
2021/06/05 00:07:39;;;;;;;9.85;4.30;;;13.40;99.90;;;;;;5032339;28;20033;-44
2021/06/05 00:10:12;;;;;;;6.53;5.43;;;13.30;99.90;;;;;;5032478;28;20025;-47
2021/06/05 00:12:38;;;;;;;6.40;5.00;;;13.40;99.90;;;;;;5031116;28;20552;-45
2021/06/05 00:15:11;;;;;;;7.10;5.15;;;13.30;99.90;;;;;;5032375;28;20103;-46
2021/06/05 00:17:36;;;;;;;6.10;5.32;;;13.30;99.90;;;;;;5030891;28;20120;-44
2021/06/05 00:20:07;;;;;;;8.15;5.97;;;13.30;99.90;;;;;;5031992;28;20104;-46
2021/06/05 00:22:32;;;;;;;9.60;6.32;;;13.40;99.90;;;;;;5032281;28;20044;-45
2021/06/05 00:24:58;;;;;;;9.50;6.07;;;13.40;99.90;;;;;;5032247;28;20029;-44
2021/06/05 00:27:23;;;;;;;6.80;5.95;;;13.40;99.90;;;;;;5028402;28;20586;-44
2021/06/05 00:29:49;;;;;;;7.65;6.18;;;13.40;99.90;;;;;;5012531;28;20033;-44
2021/06/05 00:32:14;;;;;;;6.25;5.30;;;13.50;99.90;;;;;;5011233;28;20048;-44
2021/06/05 00:34:40;;;;;;;8.23;5.78;;;13.50;99.90;;;;;;5012321;28;20385;-45
2021/06/05 00:37:05;;;;;;;7.00;5.82;;;13.40;99.90;;;;;;5030546;28;20022;-44
2021/06/05 00:39:31;;;;;;;5.18;4.63;;;13.40;99.90;;;;;;5032010;28;20384;-44
2021/06/05 00:41:56;;;;;;;6.80;5.13;;;13.30;99.90;;;;;;5031680;28;20048;-47
2021/06/05 00:44:22;;;;;;;5.40;4.90;;;13.30;99.90;;;;;;5031933;28;20491;-45
2021/06/05 00:46:47;;;;;;;5.63;5.03;;;13.30;99.90;;;;;;5031217;28;20105;-44
2021/06/05 00:49:13;;;;;;;6.40;5.72;;;13.20;99.90;;;;;;5031332;28;20109;-44
2021/06/05 00:51:51;;;;;;;9.68;6.13;;;13.10;99.90;;;;;;5031931;28;20041;-44
2021/06/05 00:54:20;;;;;;;6.43;5.63;;;13.10;99.90;;;;;;5031751;28;20026;-46
2021/06/05 00:56:51;;;;;;;6.30;5.20;;;13.00;99.90;;;;;;5031261;28;20603;-44
2021/06/05 00:59:17;;;;;;;7.63;5.43;;;13.00;99.90;;;;;;5031409;28;20137;-45
2021/06/05 01:01:43;;;;;;;6.32;5.70;;;13.00;99.90;;;;;;5032005;28;20108;-44
2021/06/05 01:04:10;;;;;;;6.82;4.50;;;13.00;99.90;;;;;;5031415;28;20037;-46
2021/06/05 01:06:48;;;;;;;6.60;5.75;;;12.90;99.90;;;;;;5034227;28;20013;-44
2021/06/05 01:09:20;;;;;;;8.23;5.70;;;12.90;99.90;;;;;;5032386;28;20032;-44
2021/06/05 01:12:01;;;;;;;6.68;5.45;;;12.80;99.90;;;;;;5032304;28;20029;-46
2021/06/05 01:14:58;;;;;;;6.93;5.88;;;12.80;99.90;;;;;;5032344;28;20196;-44
2021/06/05 01:17:29;;;;;;;7.75;6.25;;;12.80;99.90;;;;;;5035233;28;20639;-44
2021/06/05 01:20:03;;;;;;;8.40;6.15;;;12.80;99.90;;;;;;5032526;28;20021;-46
2021/06/05 01:23:06;;;;;;;6.60;5.15;;;12.70;99.90;;;;;;5031935;28;20124;-44
2021/06/05 01:26:02;;;;;;;7.85;6.20;;;12.70;99.90;;;;;;5032277;28;20489;-44
2021/06/05 01:28:54;;;;;;;7.78;5.82;;;12.60;99.90;;;;;;5032320;28;20033;-44
2021/06/05 01:31:26;;;;;;;6.15;5.40;;;12.60;99.90;;;;;;5032191;28;20396;-45
2021/06/05 01:33:54;;;;;;;7.18;5.72;;;12.60;99.90;;;;;;5030956;28;20026;-44
2021/06/05 01:36:21;;;;;;;5.38;4.70;;;12.50;99.90;;;;;;5019802;28;20026;-45
2021/06/05 01:38:54;;;;;;;6.00;4.72;;;12.50;99.90;;;;;;5012694;28;20026;-46
2021/06/05 01:41:21;;;;;;;6.97;5.45;;;12.50;99.90;;;;;;5012474;28;20417;-46
2021/06/05 01:43:48;;;;;;;8.07;6.57;;;12.40;99.90;;;;;;5012381;28;20058;-44
2021/06/05 01:46:16;;;;;;;6.78;5.60;;;12.50;99.90;;;;;;5012439;28;20022;-48
2021/06/05 01:48:41;;;;;;;8.23;6.40;;;12.40;99.90;;;;;;5009838;28;20397;-44
2021/06/05 01:51:15;;;;;;;7.18;5.57;;;12.40;99.90;;;;;;5012383;28;20018;-44
2021/06/05 01:53:48;;;;;;;7.18;6.10;;;12.40;99.90;;;;;;5012189;28;20331;-45
2021/06/05 01:56:30;;;;;;;6.55;5.75;;;12.40;99.90;;;;;;5012387;28;20428;-44
2021/06/05 01:58:57;;;;;;;11.50;6.78;;;12.40;99.90;;;;;;5012009;28;20050;-45
2021/06/05 02:01:23;;;;;;;7.15;6.43;;;12.40;99.90;;;;;;5012490;28;20057;-44
2021/06/05 02:03:50;;;;;;;7.43;6.30;;;12.40;99.90;;;;;;5009482;28;20061;-45
2021/06/05 02:06:16;;;;;;;7.38;6.45;;;12.30;99.90;;;;;;5012178;28;20109;-46
2021/06/05 02:08:42;;;;;;;8.23;6.20;;;12.30;99.90;;;;;;5011191;28;20018;-44
2021/06/05 02:11:12;;;;;;;9.60;6.38;;;12.30;99.90;;;;;;5015818;28;20025;-44
2021/06/05 02:13:51;;;;;;;6.72;5.35;;;12.20;99.90;;;;;;5015733;28;20116;-46
2021/06/05 02:16:24;;;;;;;8.57;6.85;;;12.20;99.90;;;;;;5015663;28;20485;-47
2021/06/05 02:18:59;;;;;;;10.13;6.60;;;12.10;99.90;;;;;;5053652;28;20037;-44
2021/06/05 02:21:29;;;;;;;10.02;6.88;;;12.10;99.90;;;;;;5055383;28;20033;-45
2021/06/05 02:24:04;;;;;;;7.82;6.05;;;12.10;99.90;;;;;;5055052;28;20032;-44
2021/06/05 02:26:30;;;;;;;7.63;6.40;;;12.10;99.90;;;;;;5055199;28;20021;-43
2021/06/05 02:28:58;;;;;;;7.38;6.53;;;12.00;99.90;;;;;;5055175;28;20047;-44
2021/06/05 02:31:26;;;;;;;10.55;7.35;;;12.10;99.90;;;;;;5055011;28;20021;-43
2021/06/05 02:33:53;;;;;;;8.85;7.10;;;12.10;99.90;;;;;;5053857;28;20062;-44
2021/06/05 02:36:19;;;;;;;8.45;7.38;;;12.10;99.90;;;;;;5042743;28;20064;-44
2021/06/05 02:38:49;;;;;;;9.20;7.15;;;12.10;99.90;;;;;;5035001;28;20060;-44
2021/06/05 02:41:17;;;;;;;8.77;6.97;;;12.10;99.90;;;;;;5035031;28;20021;-44
2021/06/05 02:43:44;;;;;;;7.93;6.82;;;12.10;99.90;;;;;;5034778;28;20025;-44
2021/06/05 02:46:18;;;;;;;7.82;6.38;;;12.10;99.90;;;;;;5034839;28;20021;-44
2021/06/05 02:48:55;;;;;;;7.65;5.82;;;12.10;99.90;;;;;;5033637;28;20465;-45
2021/06/05 02:51:25;;;;;;;8.27;5.82;;;12.10;99.90;;;;;;5034843;28;20101;-45
2021/06/05 02:53:50;;;;;;;7.35;6.53;;;12.20;99.90;;;;;;5034573;28;20025;-46
2021/06/05 02:56:17;;;;;;;7.00;5.82;;;12.20;99.90;;;;;;5034721;28;20037;-45
2021/06/05 02:58:42;;;;;;;7.50;6.53;;;12.20;99.90;;;;;;5034613;28;20049;-43
2021/06/05 03:01:12;;;;;;;7.60;5.97;;;12.20;99.90;;;;;;5034641;28;20215;-44
2021/06/05 03:03:37;;;;;;;6.38;5.50;;;12.20;99.90;;;;;;5033696;28;20508;-44
2021/06/05 03:06:04;;;;;;;8.90;5.22;;;12.30;99.90;;;;;;5034879;28;20033;-45
2021/06/05 03:08:32;;;;;;;9.65;6.82;;;12.30;99.90;;;;;;5034374;28;20494;-44
2021/06/05 03:10:58;;;;;;;7.38;6.15;;;12.40;99.90;;;;;;5034500;28;20037;-44
2021/06/05 03:13:25;;;;;;;8.60;6.40;;;12.40;99.90;;;;;;5034367;28;20037;-43
2021/06/05 03:15:51;;;;;;;11.68;7.28;;;12.40;99.90;;;;;;5034752;28;20022;-43
2021/06/05 03:18:19;;;;;;;8.73;6.28;;;12.50;99.90;;;;;;5048616;28;20067;-44
2021/06/05 03:20:47;;;;;;;6.45;5.47;;;12.50;99.90;;;;;;5053868;28;20028;-44
2021/06/05 03:23:14;;;;;;;8.88;6.97;;;12.50;99.90;;;;;;5054176;28;20495;-44
2021/06/05 03:25:40;;;;;;;7.80;6.45;;;12.60;99.90;;;;;;5054030;28;20399;-43
2021/06/05 03:28:07;;;;;;;7.60;6.13;;;12.60;99.90;;;;;;5054037;28;20100;-43
2021/06/05 03:30:34;;;;;;;9.90;6.90;;;12.60;99.90;;;;;;5054192;28;20028;-46
2021/06/05 03:33:00;;;;;;;10.68;6.80;;;12.70;99.90;;;;;;5052798;28;20021;-45
2021/06/05 03:35:26;;;;;;;7.50;6.57;;;12.70;99.90;;;;;;5049163;28;20095;-45
2021/06/05 03:37:52;;;;;;;7.22;5.97;;;12.90;99.90;;;;;;5033727;28;20068;-47
2021/06/05 03:40:22;;;;;;;7.45;6.18;;;13.40;99.90;;;;;;5033674;28;20025;-47
2021/06/05 03:42:47;;;;;;;6.10;5.45;;;14.20;99.90;;;;;;5033892;28;20033;-44
2021/06/05 03:45:14;;;;;;;8.70;6.05;;;14.90;99.90;;;;;;5034058;28;20373;-46
2021/06/05 03:47:41;;;;;;;6.95;4.85;;;15.50;99.90;;;;;;5032446;28;20025;-44
2021/06/05 03:50:09;;;;;;;6.07;5.20;;;15.90;99.90;;;;;;5033925;28;20032;-45
2021/06/05 03:52:34;;;;;;;7.78;5.70;;;16.70;99.90;;;;;;5033696;28;20025;-45
2021/06/05 03:55:00;;;;;;;7.32;5.40;;;17.60;99.90;;;;;;5033702;28;20056;-46
2021/06/05 03:57:27;;;;;;;7.03;5.05;;;18.20;99.90;;;;;;5033580;28;20033;-46
2021/06/05 03:59:54;;;;;;;5.57;4.95;;;18.80;99.90;;;;;;5033406;28;20049;-45
2021/06/05 04:02:21;;;;;;;5.60;5.00;;;19.60;99.80;;;;;;5032157;28;20346;-45
2021/06/05 04:04:47;;;;;;;5.05;4.32;;;20.20;97.00;;;;;;5033434;28;20176;-44
2021/06/05 04:07:13;;;;;;;4.65;3.95;;;20.80;94.40;;;;;;5033378;28;20052;-46
2021/06/05 04:09:39;;;;;;;3.92;3.50;;;21.50;92.60;;;;;;5033136;28;20108;-46
2021/06/05 04:12:06;;;;;;;4.22;3.83;;;22.20;90.80;;;;;;5033375;28;20029;-45
2021/06/05 04:14:31;;;;;;;4.30;3.78;;;22.80;87.40;;;;;;5033066;28;20163;-47
2021/06/05 04:16:57;;;;;;;4.10;3.70;;;23.30;84.50;;;;;;5036874;28;20037;-47
2021/06/05 04:19:23;;;;;;;5.28;4.07;;;23.70;82.20;;;;;;5053030;28;20033;-46
2021/06/05 04:21:49;;;;;;;3.97;3.63;;;24.20;80.60;;;;;;5048126;28;20406;-47
2021/06/05 04:24:14;;;;;;;5.85;3.28;;;24.60;78.70;;;;;;5018393;28;20061;-46
2021/06/05 04:26:40;;;;;;;4.85;3.60;;;25.00;77.50;;;;;;5042743;28;20416;-45
2021/06/05 04:29:06;;;;;;;4.07;3.67;;;25.50;76.00;;;;;;5031190;28;20096;-45
2021/06/05 04:31:31;;;;;;;3.47;3.17;;;26.00;74.20;;;;;;5030391;28;20112;-47
2021/06/05 04:33:57;;;;;;;3.45;3.15;;;26.40;73.70;;;;;;5049900;28;20112;-45
2021/06/05 04:36:23;;;;;;;4.72;3.88;;;26.70;71.10;;;;;;5038013;28;20037;-45
2021/06/05 04:38:49;;;;;;;5.55;3.55;;;27.00;69.60;;;;;;5028684;28;20037;-47
2021/06/05 04:41:18;;;;;;;5.38;3.42;;;27.30;68.50;;;;;;5050256;28;20057;-45
2021/06/05 04:43:44;;;;;;;4.30;3.55;;;27.70;65.30;;;;;;5050689;28;20076;-47
2021/06/05 04:46:12;;;;;;;4.72;3.40;;;27.90;66.10;;;;;;5051019;28;20463;-46
2021/06/05 04:48:38;;;;;;;3.38;3.05;;;28.30;65.60;;;;;;5049502;28;20017;-47
2021/06/05 04:51:04;;;;;;;3.65;3.35;;;28.60;63.70;;;;;;5050765;28;20507;-45
2021/06/05 04:53:30;;;;;;;4.15;3.40;;;29.10;63.00;;;;;;5050596;28;20198;-45
2021/06/05 04:55:56;;;;;;;4.03;3.13;;;29.70;61.10;;;;;;5048029;28;21762;-45
2021/06/05 04:58:21;;;;;;;4.13;3.35;;;30.10;61.20;;;;;;5030734;28;20494;-45
2021/06/05 05:00:49;;;;;;;3.97;3.28;;;30.40;60.10;;;;;;5030959;28;20021;-45
2021/06/05 05:03:17;;;;;;;3.97;3.58;;;30.80;58.90;;;;;;5029438;28;20478;-45
2021/06/05 05:05:43;;;;;;;3.42;2.95;;;31.10;58.40;;;;;;5030665;28;20392;-47
2021/06/05 05:08:12;;;;;;;3.30;3.00;;;31.50;57.80;;;;;;5030691;28;20036;-47
2021/06/05 05:10:43;;;;;;;3.53;3.22;;;31.50;56.80;;;;;;5030809;28;20025;-46
2021/06/05 05:13:10;;;;;;;3.75;3.03;;;31.50;56.00;;;;;;5030573;28;20018;-47
2021/06/05 05:15:36;;;;;;;3.30;3.00;;;31.90;54.60;;;;;;5030663;28;20133;-45
2021/06/05 05:18:01;;;;;;;3.40;3.10;;;32.10;53.80;;;;;;5029296;28;20136;-45
2021/06/05 05:20:31;;;;;;;3.58;3.20;;;32.30;50.60;;;;;;5030458;28;20033;-44
2021/06/05 05:22:57;;;;;;;6.38;4.35;;;32.10;52.80;;;;;;5030528;28;20069;-44
2021/06/05 05:25:23;;;;;;;4.40;4.00;;;32.30;51.20;;;;;;5030280;28;20139;-43
2021/06/05 05:27:49;;;;;;;4.95;4.15;;;32.10;52.00;;;;;;5030550;28;20114;-45
2021/06/05 05:30:20;;;;;;;6.25;3.70;;;32.50;50.90;;;;;;5026467;28;20167;-44
2021/06/05 05:32:45;;;;;;;5.75;3.88;;;32.40;50.50;;;;;;5038461;28;20450;-46
2021/06/05 05:35:12;;;;;;;5.28;3.50;;;32.70;50.50;;;;;;5047182;28;20117;-43
2021/06/05 05:37:38;;;;;;;4.47;3.50;;;32.90;49.70;;;;;;5030429;28;20511;-48
2021/06/05 05:40:05;;;;;;;3.38;2.90;;;32.80;48.60;;;;;;5030338;28;20025;-43
2021/06/05 05:42:31;;;;;;;3.00;2.80;;;32.70;49.30;;;;;;5030606;28;20060;-48
2021/06/05 05:44:56;;;;;;;3.80;3.30;;;32.60;49.00;;;;;;5034258;28;20069;-45
2021/06/05 05:47:22;;;;;;;5.38;3.95;;;32.50;47.60;;;;;;5032813;28;20393;-46
2021/06/05 05:49:47;;;;;;;3.47;3.17;;;32.50;48.00;;;;;;5034294;28;20045;-43
2021/06/05 05:52:13;;;;;;;4.05;3.10;;;32.00;46.10;;;;;;5034274;28;20057;-44
2021/06/05 05:54:38;;;;;;;3.53;3.22;;;32.00;47.50;;;;;;5034080;28;20029;-44
2021/06/05 05:57:04;;;;;;;5.03;2.90;;;32.20;47.30;;;;;;5033919;28;20039;-43
2021/06/05 05:59:30;;;;;;;4.72;3.03;;;32.30;47.00;;;;;;5033957;28;20059;-47
2021/06/05 06:01:55;;;;;;;3.08;2.80;;;32.80;46.70;;;;;;5032632;28;20041;-45
2021/06/05 06:04:21;;;;;;;4.45;2.78;;;33.30;46.20;;;;;;5034054;28;20453;-45
2021/06/05 06:06:46;;;;;;;3.22;2.92;;;34.00;45.70;;;;;;5032535;28;20026;-44
2021/06/05 06:09:13;;;;;;;4.72;2.63;;;34.70;43.90;;;;;;5053269;28;20044;-44
2021/06/05 06:11:43;;;;;;;2.85;2.65;;;34.20;44.20;;;;;;5053400;28;20219;-43
2021/06/05 06:14:09;;;;;;;2.97;2.67;;;34.00;44.40;;;;;;5053612;28;20423;-44
2021/06/05 06:16:35;;;;;;;3.25;2.83;;;34.20;44.20;;;;;;5050326;28;20033;-46
2021/06/05 06:19:00;;;;;;;3.85;2.85;;;34.70;42.80;;;;;;5033013;28;20377;-43
2021/06/05 06:21:26;;;;;;;3.78;2.72;;;34.40;43.00;;;;;;5033398;28;20025;-45
2021/06/05 06:23:51;;;;;;;5.97;2.90;;;34.10;43.00;;;;;;5033506;28;20065;-46
2021/06/05 06:26:24;;;;;;;2.95;2.70;;;34.20;42.90;;;;;;5033516;28;20057;-43
2021/06/05 06:28:49;;;;;;;5.55;2.92;;;34.80;42.50;;;;;;5033418;28;20223;-43
2021/06/05 06:31:18;;;;;;;3.70;2.70;;;35.30;42.50;;;;;;5026072;28;20061;-44
2021/06/05 06:33:44;;;;;;;2.92;2.63;;;35.60;41.40;;;;;;5052180;28;20053;-44
2021/06/05 06:36:10;;;;;;;2.55;2.35;;;35.70;41.90;;;;;;5042290;28;20060;-51
2021/06/05 06:38:42;;;;;;;3.63;2.67;;;36.20;41.80;;;;;;5033315;28;20021;-45
2021/06/05 06:41:20;;;;;;;2.63;2.42;;;36.90;40.70;;;;;;5033272;28;20030;-43
2021/06/05 06:43:46;;;;;;;3.17;2.17;;;37.40;39.30;;;;;;5032657;28;20034;-44
2021/06/05 06:46:21;;;;;;;2.30;2.10;;;37.40;39.20;;;;;;5033149;28;20540;-46
2021/06/05 06:48:49;;;;;;;2.42;2.08;;;37.40;39.20;;;;;;5036409;28;20125;-47
2021/06/05 06:51:14;;;;;;;5.38;2.80;;;37.00;39.60;;;;;;5023601;28;20432;-45
2021/06/05 06:53:40;;;;;;;2.83;2.60;;;37.00;38.90;;;;;;5028486;28;20097;-43
2021/06/05 06:56:06;;;;;;;2.45;2.25;;;36.60;39.10;;;;;;5031493;28;20072;-44
2021/06/05 06:58:33;;;;;;;2.47;2.28;;;36.60;38.90;;;;;;5033133;28;20069;-45
2021/06/05 07:00:58;;;;;;;2.67;2.47;;;36.40;39.20;;;;;;5034655;28;20025;-43
2021/06/05 07:03:24;;;;;;;2.63;2.42;;;36.10;39.50;;;;;;5033496;28;20032;-45
2021/06/05 07:05:49;;;;;;;2.97;2.38;;;35.90;38.60;;;;;;5034338;28;20108;-44
2021/06/05 07:08:20;;;;;;;2.45;2.25;;;35.80;39.20;;;;;;5034585;28;20021;-44
2021/06/05 07:10:48;;;;;;;2.65;2.45;;;36.50;39.40;;;;;;5034263;28;20561;-47
2021/06/05 07:13:14;;;;;;;5.85;2.30;;;36.80;38.70;;;;;;5034446;28;20029;-43
2021/06/05 07:15:41;;;;;;;3.20;2.92;;;36.10;38.50;;;;;;5034048;28;20033;-43
2021/06/05 07:18:09;;;;;;;2.50;2.30;;;36.40;38.50;;;;;;5046608;28;20029;-45
2021/06/05 07:20:36;;;;;;;2.45;2.25;;;36.30;37.50;;;;;;5054157;28;20468;-44
2021/06/05 07:23:01;;;;;;;2.80;2.28;;;35.90;39.10;;;;;;5054380;28;20025;-45
2021/06/05 07:25:28;;;;;;;2.90;2.70;;;36.00;39.00;;;;;;5054045;28;20028;-45
2021/06/05 07:27:54;;;;;;;2.22;2.10;;;36.40;38.30;;;;;;5054157;28;20380;-44
2021/06/05 07:30:20;;;;;;;2.90;2.40;;;36.90;38.20;;;;;;5054090;28;20025;-45
2021/06/05 07:32:46;;;;;;;3.90;2.47;;;37.70;37.80;;;;;;5053169;28;20021;-44
2021/06/05 07:35:12;;;;;;;2.97;2.67;;;37.50;36.40;;;;;;5051027;28;20389;-44
2021/06/05 07:37:37;;;;;;;2.58;2.28;;;37.50;36.60;;;;;;5034091;28;20033;-44
2021/06/05 07:40:07;;;;;;;2.50;2.30;;;37.00;37.70;;;;;;5033980;28;20041;-43
2021/06/05 07:42:35;;;;;;;2.40;2.20;;;37.00;37.20;;;;;;5033981;28;20111;-43
2021/06/05 07:45:00;;;;;;;2.92;2.72;;;37.20;37.50;;;;;;5033739;28;20029;-45
2021/06/05 07:47:26;;;;;;;2.80;2.10;;;37.30;36.70;;;;;;5033130;28;20022;-43
2021/06/05 07:49:52;;;;;;;2.08;1.98;;;37.10;37.50;;;;;;5033746;28;20025;-43
2021/06/05 07:52:23;;;;;;;4.00;2.30;;;37.40;37.50;;;;;;5033920;28;20140;-45
2021/06/05 07:54:49;;;;;;;2.17;1.98;;;37.70;36.50;;;;;;5033532;28;20076;-45
2021/06/05 07:57:15;;;;;;;2.42;2.22;;;37.40;36.60;;;;;;5033734;28;20030;-45
2021/06/05 07:59:41;;;;;;;2.90;2.30;;;36.70;36.60;;;;;;5033273;28;20080;-45
2021/06/05 08:02:07;;;;;;;3.67;2.08;;;36.50;37.10;;;;;;5032880;28;20033;-45
2021/06/05 08:04:32;;;;;;;2.35;2.13;;;37.20;37.00;;;;;;5033495;28;20033;-46
2021/06/05 08:06:58;;;;;;;2.95;2.20;;;37.40;36.50;;;;;;5032413;28;20036;-44
2021/06/05 08:09:24;;;;;;;2.00;1.80;;;37.40;36.20;;;;;;5033497;28;20108;-43
2021/06/05 08:11:49;;;;;;;2.13;1.98;;;37.10;36.20;;;;;;5033246;28;20027;-43
2021/06/05 08:14:15;;;;;;;2.38;2.17;;;37.60;36.40;;;;;;5033520;28;20030;-43
2021/06/05 08:16:40;;;;;;;2.38;2.17;;;38.30;36.10;;;;;;5034564;28;20048;-45
2021/06/05 08:19:12;;;;;;;3.47;2.00;;;38.40;35.60;;;;;;5037717;28;20436;-43
2021/06/05 08:21:39;;;;;;;2.30;2.10;;;38.90;35.60;;;;;;5032940;28;20025;-45
2021/06/05 08:24:05;;;;;;;2.47;2.28;;;38.80;35.20;;;;;;5032895;28;20034;-43
2021/06/05 08:26:31;;;;;;;2.67;2.47;;;38.70;35.20;;;;;;5032993;28;20022;-45
2021/06/05 08:28:56;;;;;;;3.55;2.47;;;38.20;35.10;;;;;;5032879;28;20025;-43
2021/06/05 08:31:24;;;;;;;2.75;2.03;;;37.60;35.40;;;;;;5032842;28;20181;-45
2021/06/05 08:33:50;;;;;;;3.00;2.70;;;37.60;35.60;;;;;;5031810;28;20385;-44
2021/06/05 08:36:32;;;;;;;2.63;2.42;;;37.60;35.40;;;;;;5032838;28;20025;-45
2021/06/05 08:38:59;;;;;;;2.20;2.00;;;37.90;35.50;;;;;;5032784;28;20075;-43
2021/06/05 08:41:31;;;;;;;2.00;1.70;;;37.50;35.50;;;;;;5032957;28;20048;-43
2021/06/05 08:44:25;;;;;;;2.60;2.40;;;37.70;35.50;;;;;;5032812;28;20029;-43
2021/06/05 08:47:01;;;;;;;5.75;2.25;;;37.20;35.00;;;;;;5027680;28;20049;-45
2021/06/05 08:49:30;;;;;;;2.15;1.98;;;36.90;35.70;;;;;;5032577;28;20021;-45
2021/06/05 08:52:07;;;;;;;2.97;2.53;;;36.90;35.70;;;;;;5032403;28;20097;-43
2021/06/05 08:54:54;;;;;;;3.53;2.40;;;36.60;35.20;;;;;;5032476;28;20477;-45
2021/06/05 08:57:43;;;;;;;1.83;1.73;;;36.50;35.90;;;;;;5032395;28;20413;-43
2021/06/05 09:00:17;;;;;;;3.28;2.20;;;37.00;36.30;;;;;;5032314;28;20049;-45
2021/06/05 09:02:47;;;;;;;4.55;2.50;;;37.40;35.50;;;;;;5031490;28;20105;-45
2021/06/05 09:05:18;;;;;;;4.25;2.25;;;37.30;35.20;;;;;;5032451;28;20040;-45
2021/06/05 09:07:44;;;;;;;3.13;2.33;;;37.00;35.40;;;;;;5032560;28;20030;-46
2021/06/05 09:10:14;;;;;;;2.63;2.10;;;37.00;35.80;;;;;;5032432;28;20017;-45
2021/06/05 09:12:39;;;;;;;2.67;2.38;;;37.30;35.80;;;;;;5032548;28;20029;-44
2021/06/05 09:15:06;;;;;;;3.25;2.20;;;37.30;35.60;;;;;;5032562;28;20040;-43
2021/06/05 09:17:44;;;;;;;2.70;2.50;;;37.20;35.50;;;;;;5040493;28;20079;-43
2021/06/05 09:20:15;;;;;;;2.42;1.90;;;37.20;35.50;;;;;;5052296;28;20025;-44
2021/06/05 09:22:45;;;;;;;2.83;1.90;;;37.90;35.40;;;;;;5052409;28;20032;-44
2021/06/05 09:25:20;;;;;;;2.35;1.80;;;38.10;34.90;;;;;;5052297;28;20508;-44
2021/06/05 09:27:46;;;;;;;2.15;1.90;;;38.30;34.20;;;;;;5052168;28;20103;-45
2021/06/05 09:30:37;;;;;;;2.47;2.25;;;38.30;34.30;;;;;;5052324;28;20116;-45
2021/06/05 09:33:11;;;;;;;3.88;2.38;;;38.10;34.40;;;;;;5051154;28;20025;-44
2021/06/05 09:35:44;;;;;;;2.15;2.00;;;38.00;34.00;;;;;;5045718;28;20034;-43
2021/06/05 09:38:30;;;;;;;2.08;1.98;;;37.20;34.40;;;;;;5032269;28;20038;-45
2021/06/05 09:41:07;;;;;;;2.47;2.28;;;37.30;35.00;;;;;;5032188;28;20217;-45
2021/06/05 09:43:34;;;;;;;2.58;2.38;;;37.10;34.90;;;;;;5032252;28;20037;-43
2021/06/05 09:46:08;;;;;;;2.83;2.38;;;37.00;35.40;;;;;;5032070;28;20029;-47
2021/06/05 09:48:40;;;;;;;2.70;2.17;;;36.80;35.00;;;;;;5031126;28;20112;-47
2021/06/05 09:51:23;;;;;;;2.33;2.00;;;36.30;35.40;;;;;;5032128;28;20033;-48
2021/06/05 09:54:11;;;;;;;3.67;2.17;;;36.30;36.20;;;;;;5032053;28;20053;-46
2021/06/05 09:56:43;;;;;;;3.35;2.10;;;35.70;36.20;;;;;;5032009;28;20030;-43
2021/06/05 09:59:26;;;;;;;4.90;2.28;;;34.30;37.50;;;;;;5032098;28;20093;-52
2021/06/05 10:02:02;;;;;;;2.65;2.30;;;33.30;38.50;;;;;;5030984;28;20667;-46
2021/06/05 10:04:30;;;;;;;3.30;2.38;;;32.30;39.20;;;;;;5031923;28;20560;-44
2021/06/05 10:06:58;;;;;;;2.50;2.30;;;31.40;41.00;;;;;;5031911;28;20033;-43
2021/06/05 10:09:34;;;;;;;4.18;2.08;;;30.60;41.00;;;;;;5032138;28;20548;-45
2021/06/05 10:12:08;;;;;;;2.90;2.60;;;30.00;42.50;;;;;;5031836;28;20028;-43
2021/06/05 10:15:06;;;;;;;4.68;2.53;;;29.60;42.90;;;;;;5031736;28;20033;-47
2021/06/05 10:17:42;;;;;;;5.63;2.50;;;29.30;44.50;;;;;;5040280;28;20021;-43
2021/06/05 10:20:33;;;;;;;3.17;2.88;;;29.10;43.70;;;;;;5051860;28;20029;-44
2021/06/05 10:22:59;;;;;;;3.05;2.83;;;28.80;43.80;;;;;;5051461;28;20032;-45
2021/06/05 10:25:44;;;;;;;3.83;2.65;;;28.30;44.30;;;;;;5051770;28;20074;-46
2021/06/05 10:28:19;;;;;;;2.93;2.67;;;27.80;45.10;;;;;;5051645;28;20389;-47
2021/06/05 10:30:50;;;;;;;4.80;2.73;;;27.60;45.70;;;;;;5052884;28;20747;-46
2021/06/05 10:33:26;;;;;;;3.17;2.50;;;27.60;46.20;;;;;;5054110;28;20535;-47
2021/06/05 10:35:55;;;;;;;2.88;2.60;;;27.60;46.50;;;;;;5046561;28;20029;-47
2021/06/05 10:38:42;;;;;;;4.72;3.05;;;27.50;46.30;;;;;;5035234;28;20080;-47
2021/06/05 10:41:13;;;;;;;3.95;2.53;;;27.40;47.90;;;;;;5033820;28;20051;-47
2021/06/05 10:43:39;;;;;;;6.97;2.92;;;27.40;46.90;;;;;;5035043;28;20029;-45
2021/06/05 10:46:17;;;;;;;3.90;2.53;;;27.40;47.00;;;;;;5034920;28;20392;-45
2021/06/05 10:48:44;;;;;;;3.72;2.95;;;27.20;47.00;;;;;;5034052;28;20029;-43
2021/06/05 10:51:23;;;;;;;4.45;2.38;;;27.00;47.30;;;;;;5034909;28;20075;-44
2021/06/05 10:54:02;;;;;;;2.95;2.30;;;27.00;48.10;;;;;;5035227;28;20484;-46
2021/06/05 10:56:55;;;;;;;3.80;3.30;;;27.10;47.10;;;;;;5033486;28;20049;-44
2021/06/05 10:59:41;;;;;;;3.10;2.53;;;27.20;47.10;;;;;;5034828;28;20053;-45
2021/06/05 11:02:07;;;;;;;;;;;27.00;47.30;;;;;;5034151;28;20030;-45
2021/06/05 11:04:33;;;;;;;;;;;26.90;47.60;;;;;;5035011;28;19916;-46
2021/06/05 11:07:05;;;;;;;3.45;2.38;;;26.90;47.80;;;;;;5034599;28;20283;-48
2021/06/05 11:09:30;;;;;;;2.80;2.53;;;26.90;47.60;;;;;;5034791;28;20088;-47
2021/06/05 11:12:14;;;;;;;4.07;2.60;;;27.00;47.70;;;;;;5034477;28;20030;-45
2021/06/05 11:14:43;;;;;;;2.60;2.40;;;27.10;48.20;;;;;;5034661;28;20076;-47
2021/06/05 11:17:29;;;;;;;3.40;2.17;;;27.00;47.50;;;;;;5039627;28;20480;-50
2021/06/05 11:20:05;;;;;;;5.18;2.78;;;27.00;47.90;;;;;;5026598;28;20076;-47
2021/06/05 11:22:49;;;;;;;2.63;2.42;;;27.00;47.80;;;;;;5037221;28;20029;-47
2021/06/05 11:25:15;;;;;;;3.88;2.53;;;26.90;47.90;;;;;;5052049;28;20036;-46
2021/06/05 11:27:47;;;;;;;3.10;2.55;;;26.80;48.10;;;;;;5036987;28;20018;-48
2021/06/05 11:30:21;;;;;;;2.65;2.42;;;26.80;47.70;;;;;;5030625;28;20380;-46
2021/06/05 11:32:57;;;;;;;2.47;2.28;;;26.70;47.30;;;;;;5031448;28;20021;-49
2021/06/05 11:35:48;;;;;;;2.30;2.10;;;26.80;47.40;;;;;;5029577;28;20037;-49
2021/06/05 11:38:17;;;;;;;2.75;2.22;;;26.90;48.00;;;;;;5031955;28;20032;-48
2021/06/05 11:40:59;;;;;;;2.90;2.60;;;26.90;47.20;;;;;;5040857;28;20364;-49
2021/06/05 11:43:27;;;;;;;3.17;2.35;;;26.90;46.80;;;;;;5051872;28;20032;-48
2021/06/05 11:46:08;;;;;;;2.42;2.15;;;26.80;47.50;;;;;;5051832;28;20495;-49
2021/06/05 11:48:50;;;;;;;2.67;2.45;;;26.80;48.10;;;;;;5050951;28;20041;-47
2021/06/05 11:51:22;;;;;;;2.80;2.60;;;26.80;47.70;;;;;;5051520;28;20109;-48
2021/06/05 11:53:50;;;;;;;4.47;2.67;;;26.80;47.40;;;;;;5032307;28;20022;-49
2021/06/05 11:56:43;;;;;;;3.30;2.85;;;26.70;47.60;;;;;;5032000;28;20029;-48
2021/06/05 11:59:26;;;;;;;3.63;2.58;;;26.70;48.20;;;;;;5028704;28;20095;-47
2021/06/05 12:01:52;;;;;;;2.95;2.75;;;26.70;48.00;;;;;;5030909;28;20112;-49
2021/06/05 12:04:22;;;;;;;2.50;2.30;;;26.60;47.90;;;;;;5031772;28;20034;-51
2021/06/05 12:06:50;;;;;;;4.40;2.78;;;26.70;48.10;;;;;;5031771;28;20039;-52
2021/06/05 12:09:24;;;;;;;3.92;2.35;;;26.70;48.10;;;;;;5031611;28;20506;-48
2021/06/05 12:12:01;;;;;;;3.83;2.40;;;26.70;47.90;;;;;;5031623;28;20370;-49
2021/06/05 12:17:26;;;;;;;3.60;2.78;;;26.60;47.70;;;;;;5030508;28;20415;-46
2021/06/05 12:19:52;;;;;;;3.08;2.60;;;26.50;48.20;;;;;;5031450;28;20037;-48
2021/06/05 12:22:26;;;;;;;2.90;2.50;;;26.60;48.30;;;;;;5031265;28;20058;-49
2021/06/05 12:24:54;;;;;;;2.85;2.55;;;26.50;48.30;;;;;;5031486;28;20032;-51
2021/06/05 12:27:30;;;;;;;2.40;2.20;;;26.50;48.40;;;;;;5019611;28;20018;-46
2021/06/05 12:30:14;;;;;;;3.30;2.03;;;26.50;49.10;;;;;;5051421;28;20029;-48
2021/06/05 12:32:50;;;;;;;2.75;2.40;;;26.70;48.70;;;;;;5050110;28;20017;-48
2021/06/05 12:35:27;;;;;;;4.38;2.72;;;26.70;47.90;;;;;;5047493;28;20377;-48
2021/06/05 12:37:56;;;;;;;4.88;2.80;;;26.70;47.80;;;;;;5019328;28;20029;-47
2021/06/05 12:40:38;;;;;;;2.72;2.33;;;26.60;47.70;;;;;;5031231;28;20025;-46
2021/06/05 12:43:08;;;;;;;3.22;2.38;;;26.60;48.30;;;;;;5032135;28;20036;-50
2021/06/05 12:45:36;;;;;;;2.80;2.60;;;26.60;48.20;;;;;;5032809;28;20477;-49
2021/06/05 12:48:03;;;;;;;4.88;2.72;;;26.50;48.00;;;;;;5031843;28;20057;-49
2021/06/05 12:50:33;;;;;;;4.18;3.00;;;26.50;48.60;;;;;;5032927;28;20021;-48
2021/06/05 12:53:00;;;;;;;4.40;2.92;;;26.50;48.10;;;;;;5027350;28;20024;-53
2021/06/05 12:55:25;;;;;;;2.45;2.25;;;26.50;48.10;;;;;;5031601;28;20029;-53
2021/06/05 12:57:55;;;;;;;3.72;2.38;;;26.40;47.20;;;;;;5032439;28;20048;-53
2021/06/05 13:00:29;;;;;;;4.47;2.40;;;26.30;47.20;;;;;;5032306;28;20068;-52
2021/06/05 13:03:16;;;;;;;2.78;2.53;;;26.30;47.70;;;;;;5031472;28;20040;-55
2021/06/05 13:06:00;;;;;;;2.60;2.20;;;26.30;47.60;;;;;;5032058;28;20026;-54